createdAt,value
2018-11-07T00:01:07.441Z,72.90
2018-11-07T00:03:36.676Z,74.07
2018-11-07T00:06:06.560Z,68.93
2018-11-07T00:08:35.983Z,75.50
2018-11-07T00:11:05.261Z,75.50
2018-11-07T00:13:34.489Z,79.27
2018-11-07T00:16:03.729Z,78.13
2018-11-07T00:18:32.954Z,80.70
2018-11-07T00:21:02.216Z,74.73
2018-11-07T00:23:31.467Z,75.87
2018-11-07T00:26:00.699Z,74.97
2018-11-07T00:28:30.038Z,73.07
2018-11-07T00:30:59.303Z,73.93
2018-11-07T00:33:28.600Z,73.07
2018-11-07T00:35:57.851Z,71.03
2018-11-07T00:38:27.193Z,71.73
2018-11-07T00:40:56.659Z,68.30
2018-11-07T00:43:25.980Z,74.03
2018-11-07T00:45:55.237Z,73.77
2018-11-07T00:48:24.489Z,74.80
2018-11-07T00:50:53.765Z,73.77
2018-11-07T00:53:23.048Z,70.60
2018-11-07T00:55:52.280Z,67.33
2018-11-07T00:58:21.532Z,66.80
2018-11-07T01:00:50.774Z,70.33
2018-11-07T01:03:20.618Z,70.97
2018-11-07T01:05:49.911Z,68.50
2018-11-07T01:08:19.341Z,65.40
2018-11-07T01:10:48.553Z,67.63
2018-11-07T01:13:18.011Z,66.27
2018-11-07T01:15:47.384Z,66.57
2018-11-07T01:18:16.798Z,68.20
2018-11-07T01:20:46.084Z,64.13
2018-11-07T01:23:15.317Z,70.67
2018-11-07T01:25:44.703Z,61.57
2018-11-07T01:28:13.970Z,67.43
2018-11-07T01:30:43.287Z,69.17
2018-11-07T01:33:12.578Z,64.97
2018-11-07T01:35:41.821Z,61.20
2018-11-07T01:38:11.100Z,66.03
2018-11-07T01:40:41.282Z,68.27
2018-11-07T01:43:10.588Z,60.60
2018-11-07T01:45:39.876Z,59.43
2018-11-07T01:48:09.124Z,62.17
2018-11-07T01:50:38.408Z,60.53
2018-11-07T01:53:08.248Z,59.37
2018-11-07T01:55:37.511Z,63.80
2018-11-07T01:58:06.785Z,61.20
2018-11-07T02:00:36.046Z,60.17
2018-11-07T02:03:05.754Z,60.43
2018-11-07T02:05:35.043Z,56.87
2018-11-07T02:08:04.356Z,56.10
2018-11-07T02:10:33.709Z,55.13
2018-11-07T02:13:02.969Z,64.77
2018-11-07T02:15:32.237Z,59.23
2018-11-07T02:18:01.487Z,54.67
2018-11-07T02:20:30.755Z,56.10
2018-11-07T02:23:00.012Z,55.37
2018-11-07T02:25:29.417Z,55.60
2018-11-07T02:27:58.654Z,50.90
2018-11-07T02:30:27.951Z,54.17
2018-11-07T02:32:58.252Z,54.50
2018-11-07T02:35:27.507Z,53.57
2018-11-07T02:37:56.792Z,53.03
2018-11-07T02:40:26.039Z,52.47
2018-11-07T02:42:55.293Z,47.83
2018-11-07T02:45:24.517Z,48.70
2018-11-07T02:47:53.753Z,48.30
2018-11-07T02:50:23.021Z,46.50
2018-11-07T02:52:52.340Z,44.77
2018-11-07T02:55:21.649Z,44.83
2018-11-07T02:57:50.895Z,49.87
2018-11-07T03:00:20.123Z,51.53
2018-11-07T03:02:49.366Z,47.50
2018-11-07T03:05:18.616Z,49.60
2018-11-07T03:07:47.924Z,50.77
2018-11-07T03:10:17.187Z,47.43
2018-11-07T03:12:46.412Z,45.10
2018-11-07T03:15:15.675Z,45.57
2018-11-07T03:17:44.933Z,49.70
2018-11-07T03:20:14.344Z,47.27
2018-11-07T03:22:43.776Z,44.80
2018-11-07T03:25:13.085Z,44.03
2018-11-07T03:27:42.400Z,44.47
2018-11-07T03:30:11.652Z,41.73
2018-11-07T03:32:40.935Z,39.17
2018-11-07T03:35:15.419Z,42.00
2018-11-07T03:37:44.779Z,40.40
2018-11-07T03:40:14.053Z,43.47
2018-11-07T03:42:43.426Z,39.40
2018-11-07T03:45:12.695Z,42.03
2018-11-07T03:47:41.943Z,40.27
2018-11-07T03:50:11.229Z,35.77
2018-11-07T03:52:40.895Z,35.43
2018-11-07T03:55:10.329Z,36.00
2018-11-07T03:57:40.035Z,34.67
2018-11-07T04:00:10.437Z,34.27
2018-11-07T04:02:40.475Z,32.13
2018-11-07T04:05:11.073Z,32.67
2018-11-07T04:07:41.828Z,30.13
2018-11-07T04:10:11.325Z,34.23
2018-11-07T04:12:40.677Z,31.60
2018-11-07T04:15:10.155Z,31.40
2018-11-07T04:17:39.402Z,30.43
2018-11-07T04:20:09.695Z,29.33
2018-11-07T04:22:39.385Z,28.10
2018-11-07T04:25:09.291Z,33.60
2018-11-07T04:27:39.191Z,33.10
2018-11-07T04:30:10.532Z,28.03
2018-11-07T04:32:39.947Z,27.60
2018-11-07T04:35:10.475Z,33.07
2018-11-07T04:37:40.291Z,28.00
2018-11-07T04:40:10.807Z,28.23
2018-11-07T04:42:40.361Z,29.80
2018-11-07T04:45:09.690Z,27.43
2018-11-07T04:47:38.958Z,29.27
2018-11-07T04:50:09.969Z,29.13
2018-11-07T04:52:39.677Z,27.63
2018-11-07T04:55:08.972Z,27.63
2018-11-07T04:57:38.231Z,26.67
2018-11-07T05:00:09.621Z,27.83
2018-11-07T05:02:38.956Z,25.47
2018-11-07T05:05:08.310Z,24.63
2018-11-07T05:07:37.710Z,27.77
2018-11-07T05:10:09.076Z,26.37
2018-11-07T05:12:38.315Z,31.63
2018-11-07T05:15:08.151Z,25.80
2018-11-07T05:17:37.561Z,26.70
2018-11-07T05:20:08.685Z,26.57
2018-11-07T05:22:38.701Z,26.50
2018-11-07T05:25:09.056Z,28.70
2018-11-07T05:27:39.025Z,26.57
2018-11-07T05:30:09.560Z,28.20
2018-11-07T05:32:38.891Z,28.73
2018-11-07T05:35:08.434Z,28.70
2018-11-07T05:37:38.020Z,24.83
2018-11-07T05:40:07.391Z,29.60
2018-11-07T05:42:37.012Z,23.97
2018-11-07T05:45:06.454Z,25.90
2018-11-07T05:47:35.782Z,24.97
2018-11-07T05:50:06.181Z,27.10
2018-11-07T05:52:35.680Z,26.83
2018-11-07T05:55:05.732Z,27.60
2018-11-07T05:57:34.971Z,27.47
2018-11-07T06:00:04.820Z,29.83
2018-11-07T06:02:34.139Z,28.23
2018-11-07T06:05:03.495Z,26.80
2018-11-07T06:07:33.305Z,26.30
2018-11-07T06:10:03.177Z,25.20
2018-11-07T06:12:32.463Z,26.93
2018-11-07T06:15:02.432Z,23.47
2018-11-07T06:17:31.653Z,24.90
2018-11-07T06:20:00.904Z,24.70
2018-11-07T06:22:30.151Z,26.67
2018-11-07T06:24:59.427Z,26.97
2018-11-07T06:27:28.711Z,26.27
2018-11-07T06:29:57.979Z,22.10
2018-11-07T06:32:27.228Z,22.57
2018-11-07T06:34:56.542Z,27.97
2018-11-07T06:37:25.814Z,23.57
2018-11-07T06:39:55.065Z,25.47
2018-11-07T06:42:24.533Z,26.87
2018-11-07T06:44:53.757Z,24.47
2018-11-07T06:47:23.022Z,26.57
2018-11-07T06:49:52.655Z,27.73
2018-11-07T06:52:22.493Z,25.37
2018-11-07T06:54:51.965Z,24.40
2018-11-07T06:57:21.243Z,24.63
2018-11-07T06:59:50.469Z,25.70
2018-11-07T07:02:19.760Z,26.43
2018-11-07T07:04:49.023Z,25.43
2018-11-07T07:07:18.311Z,27.87
2018-11-07T07:09:47.574Z,27.10
2018-11-07T07:12:16.859Z,27.27
2018-11-07T07:14:46.405Z,25.80
2018-11-07T07:17:15.651Z,29.17
2018-11-07T07:19:45.144Z,29.20
2018-11-07T07:22:14.403Z,27.03
2018-11-07T07:24:43.653Z,25.10
2018-11-07T07:27:12.885Z,25.57
2018-11-07T07:29:42.174Z,22.17
2018-11-07T07:32:11.445Z,21.97
2018-11-07T07:34:40.794Z,23.77
2018-11-07T07:37:10.084Z,21.80
2018-11-07T07:39:39.358Z,22.70
2018-11-07T07:42:08.778Z,23.60
2018-11-07T07:44:38.016Z,23.17
2018-11-07T07:47:07.248Z,20.50
2018-11-07T07:49:36.567Z,19.63
2018-11-07T07:52:05.994Z,20.90
2018-11-07T07:54:35.233Z,24.93
2018-11-07T07:57:04.471Z,21.90
2018-11-07T07:59:33.771Z,21.60
2018-11-07T08:02:03.195Z,20.80
2018-11-07T08:04:32.524Z,23.10
2018-11-07T08:07:02.467Z,21.03
2018-11-07T08:09:31.695Z,21.90
2018-11-07T08:12:00.977Z,21.33
2018-11-07T08:14:30.251Z,20.50
2018-11-07T08:16:59.522Z,20.20
2018-11-07T08:19:28.759Z,19.93
2018-11-07T08:21:58.004Z,22.23
2018-11-07T08:24:27.245Z,24.00
2018-11-07T08:26:56.479Z,23.77
2018-11-07T08:29:25.773Z,22.40
2018-11-07T08:31:55.149Z,20.63
2018-11-07T08:34:24.424Z,24.43
2018-11-07T08:36:53.677Z,21.53
2018-11-07T08:39:22.913Z,19.37
2018-11-07T08:41:52.277Z,23.07
2018-11-07T08:44:21.609Z,17.90
2018-11-07T08:46:50.888Z,23.83
2018-11-07T08:49:20.155Z,20.03
2018-11-07T08:51:50.292Z,19.27
2018-11-07T08:54:19.581Z,19.63
2018-11-07T08:56:48.846Z,19.27
2018-11-07T08:59:18.102Z,19.27
2018-11-07T09:01:47.383Z,19.13
2018-11-07T09:04:16.609Z,21.53
2018-11-07T09:06:45.914Z,22.20
2018-11-07T09:09:15.157Z,21.70
2018-11-07T09:11:44.440Z,22.27
2018-11-07T09:14:13.760Z,20.83
2018-11-07T09:16:43.104Z,20.27
2018-11-07T09:19:12.441Z,18.90
2018-11-07T09:21:41.697Z,20.07
2018-11-07T09:24:11.048Z,18.90
2018-11-07T09:26:40.303Z,17.63
2018-11-07T09:29:10.321Z,19.57
2018-11-07T09:31:39.533Z,22.13
2018-11-07T09:34:08.917Z,17.97
2018-11-07T09:36:38.201Z,18.63
2018-11-07T09:39:08.976Z,16.07
2018-11-07T09:41:38.363Z,15.73
2018-11-07T09:44:07.831Z,18.17
2018-11-07T09:46:37.121Z,17.27
2018-11-07T09:49:06.417Z,17.17
2018-11-07T09:51:35.840Z,15.57
2018-11-07T09:54:05.202Z,15.00
2018-11-07T09:56:34.423Z,14.47
2018-11-07T09:59:03.810Z,14.80
2018-11-07T10:01:33.106Z,15.40
2018-11-07T10:04:02.385Z,14.73
2018-11-07T10:06:31.672Z,14.97
2018-11-07T10:09:00.908Z,15.77
2018-11-07T10:11:30.924Z,13.63
2018-11-07T10:14:00.200Z,13.77
2018-11-07T10:16:29.670Z,15.67
2018-11-07T10:18:58.934Z,13.53
2018-11-07T10:21:28.248Z,13.30
2018-11-07T10:23:58.359Z,11.77
2018-11-07T10:26:27.622Z,13.13
2018-11-07T10:28:57.179Z,12.77
2018-11-07T10:31:26.220Z,12.03
2018-11-07T10:33:55.482Z,11.33
2018-11-07T10:36:24.800Z,12.37
2018-11-07T10:38:54.138Z,11.90
2018-11-07T10:41:23.341Z,12.07
2018-11-07T10:43:52.647Z,11.90
2018-11-07T10:46:22.788Z,11.07
2018-11-07T10:48:52.174Z,11.50
2018-11-07T10:51:21.453Z,11.50
2018-11-07T10:53:50.956Z,10.50
2018-11-07T10:56:20.251Z,10.33
2018-11-07T10:58:49.504Z,10.40
2018-11-07T11:01:24.481Z,11.40
2018-11-07T11:03:53.708Z,9.07
2018-11-07T11:06:22.946Z,9.13
2018-11-07T11:08:52.211Z,8.87
2018-11-07T11:11:21.537Z,8.67
2018-11-07T11:13:50.730Z,9.30
2018-11-07T11:16:20.172Z,11.07
2018-11-07T11:18:49.405Z,8.00
2018-11-07T11:21:18.685Z,9.40
2018-11-07T11:23:47.919Z,7.97
2018-11-07T11:26:17.189Z,7.37
2018-11-07T11:28:47.218Z,8.23
2018-11-07T11:31:16.499Z,9.07
2018-11-07T11:33:46.015Z,6.77
2018-11-07T11:36:15.287Z,7.20
2018-11-07T11:38:44.522Z,9.43
2018-11-07T11:41:13.888Z,7.33
2018-11-07T11:43:43.244Z,8.53
2018-11-07T11:46:12.495Z,6.83
2018-11-07T11:48:41.747Z,7.13
2018-11-07T11:51:11.150Z,9.80
2018-11-07T11:53:41.180Z,6.40
2018-11-07T11:56:10.445Z,7.47
2018-11-07T11:58:39.713Z,6.43
2018-11-07T12:01:09.182Z,5.90
2018-11-07T12:03:38.564Z,6.67
2018-11-07T12:06:07.944Z,9.10
2018-11-07T12:08:37.327Z,7.97
2018-11-07T12:11:06.706Z,6.13
2018-11-07T12:13:35.950Z,9.07
2018-11-07T12:16:05.248Z,5.80
2018-11-07T12:18:34.521Z,6.27
2018-11-07T12:21:03.856Z,5.60
2018-11-07T12:23:33.103Z,7.40
2018-11-07T12:26:02.360Z,5.83
2018-11-07T12:28:31.680Z,5.27
2018-11-07T12:31:01.349Z,5.80
2018-11-07T12:33:30.706Z,7.00
2018-11-07T12:35:59.959Z,5.30
2018-11-07T12:38:29.320Z,6.40
2018-11-07T12:40:58.573Z,5.83
2018-11-07T12:43:27.824Z,5.20
2018-11-07T12:45:57.667Z,5.13
2018-11-07T12:48:27.017Z,6.50
2018-11-07T12:50:56.249Z,4.37
2018-11-07T12:53:25.521Z,6.20
2018-11-07T12:55:55.086Z,4.50
2018-11-07T12:58:24.867Z,4.83
2018-11-07T13:00:54.067Z,5.97
2018-11-07T13:03:23.385Z,4.40
2018-11-07T13:05:52.654Z,5.77
2018-11-07T13:08:21.931Z,4.53
2018-11-07T13:10:51.282Z,3.87
2018-11-07T13:13:20.705Z,6.87
2018-11-07T13:15:49.968Z,5.10
2018-11-07T13:18:19.209Z,5.90
2018-11-07T13:20:48.474Z,4.90
2018-11-07T13:23:17.972Z,3.90
2018-11-07T13:25:47.224Z,4.70
2018-11-07T13:28:16.540Z,4.47
2018-11-07T13:30:45.733Z,4.33
2018-11-07T13:33:14.995Z,4.53
2018-11-07T13:35:44.252Z,5.73
2018-11-07T13:38:13.749Z,3.03
2018-11-07T13:40:42.823Z,4.23
2018-11-07T13:43:12.044Z,3.53
2018-11-07T13:45:41.323Z,4.53
2018-11-07T13:48:10.593Z,4.80
2018-11-07T13:50:39.873Z,4.20
2018-11-07T13:53:09.220Z,3.80
2018-11-07T13:55:38.452Z,4.23
2018-11-07T13:58:07.746Z,3.77
2018-11-07T14:00:37.004Z,4.23
2018-11-07T14:03:06.539Z,7.10
2018-11-07T14:05:35.874Z,4.60
2018-11-07T14:08:05.726Z,5.57
2018-11-07T14:10:35.087Z,7.27
2018-11-07T14:13:04.718Z,7.07
2018-11-07T14:15:33.980Z,3.73
2018-11-07T14:18:03.344Z,3.87
2018-11-07T14:20:33.464Z,4.90
2018-11-07T14:23:02.868Z,6.03
2018-11-07T14:25:32.132Z,5.27
2018-11-07T14:28:01.701Z,4.40
2018-11-07T14:30:30.912Z,6.50
2018-11-07T14:33:01.253Z,5.47
2018-11-07T14:35:31.257Z,5.23
2018-11-07T14:38:00.515Z,6.40
2018-11-07T14:40:29.812Z,4.17
2018-11-07T14:42:59.025Z,4.87
2018-11-07T14:45:28.495Z,4.70
2018-11-07T14:47:57.773Z,4.47
2018-11-07T14:50:27.245Z,4.77
2018-11-07T14:52:56.498Z,4.97
2018-11-07T14:55:25.930Z,4.20
2018-11-07T14:57:56.029Z,3.70
2018-11-07T15:00:25.300Z,6.47
2018-11-07T15:02:54.573Z,3.50
2018-11-07T15:05:23.895Z,3.90
2018-11-07T15:07:53.156Z,4.20
2018-11-07T15:10:22.432Z,4.87
2018-11-07T15:12:51.670Z,5.27
2018-11-07T15:15:20.969Z,6.37
2018-11-07T15:17:50.302Z,4.33
2018-11-07T15:20:19.617Z,5.87
2018-11-07T15:22:48.968Z,3.50
2018-11-07T15:25:18.440Z,5.10
2018-11-07T15:27:48.135Z,3.87
2018-11-07T15:30:18.056Z,5.03
2018-11-07T15:32:47.527Z,3.03
2018-11-07T15:35:16.802Z,3.47
2018-11-07T15:37:46.172Z,3.73
2018-11-07T15:40:17.071Z,3.87
2018-11-07T15:42:46.793Z,3.73
2018-11-07T15:45:17.345Z,4.57
2018-11-07T15:47:46.627Z,4.73
2018-11-07T15:50:21.076Z,5.87
2018-11-07T15:52:50.778Z,5.40
2018-11-07T15:55:20.061Z,4.67
2018-11-07T15:57:49.354Z,3.30
2018-11-07T16:00:19.431Z,5.63
2018-11-07T16:02:48.689Z,5.13
2018-11-07T16:05:18.176Z,3.23
2018-11-07T16:07:47.449Z,3.47
2018-11-07T16:10:17.043Z,2.97
2018-11-07T16:12:46.354Z,2.87
2018-11-07T16:15:16.970Z,3.47
2018-11-07T16:17:46.440Z,2.97
2018-11-07T16:20:20.063Z,5.83
2018-11-07T16:22:49.982Z,2.93
2018-11-07T16:25:19.247Z,4.63
2018-11-07T16:27:48.571Z,7.13
2018-11-07T16:30:19.096Z,3.23
2018-11-07T16:32:48.520Z,2.53
2018-11-07T16:35:17.800Z,3.57
2018-11-07T16:37:47.213Z,3.30
2018-11-07T16:40:17.709Z,3.70
2018-11-07T16:42:47.052Z,3.73
2018-11-07T16:45:17.128Z,3.97
2018-11-07T16:47:46.988Z,4.93
2018-11-07T16:50:16.881Z,3.43
2018-11-07T16:52:46.327Z,5.23
2018-11-07T16:55:16.013Z,3.30
2018-11-07T16:57:45.287Z,3.30
2018-11-07T17:00:17.049Z,4.93
2018-11-07T17:02:46.854Z,2.97
2018-11-07T17:05:16.493Z,5.00
2018-11-07T17:07:46.189Z,4.23
2018-11-07T17:10:15.676Z,4.13
2018-11-07T17:12:44.953Z,2.90
2018-11-07T17:15:14.237Z,3.67
2018-11-07T17:17:43.606Z,5.33
2018-11-07T17:20:14.106Z,4.23
2018-11-07T17:22:43.707Z,5.40
2018-11-07T17:25:15.307Z,4.47
2018-11-07T17:27:45.120Z,4.70
2018-11-07T17:30:15.537Z,3.37
2018-11-07T17:32:44.797Z,5.13
2018-11-07T17:35:15.153Z,3.63
2018-11-07T17:37:44.763Z,5.03
2018-11-07T17:40:18.252Z,6.40
2018-11-07T17:42:47.737Z,3.07
2018-11-07T17:45:19.433Z,5.63
2018-11-07T17:47:49.650Z,4.57
2018-11-07T17:50:19.749Z,3.90
2018-11-07T17:52:49.447Z,7.03
2018-11-07T17:55:20.065Z,5.30
2018-11-07T17:57:49.342Z,3.37
2018-11-07T18:00:20.132Z,4.37
2018-11-07T18:02:49.382Z,4.00
2018-11-07T18:05:19.232Z,3.20
2018-11-07T18:07:48.598Z,3.23
2018-11-07T18:10:18.651Z,4.03
2018-11-07T18:12:48.099Z,8.97
2018-11-07T18:15:17.488Z,4.80
2018-11-07T18:17:46.737Z,3.07
2018-11-07T18:20:16.882Z,4.33
2018-11-07T18:22:46.114Z,4.67
2018-11-07T18:25:21.818Z,5.20
2018-11-07T18:27:51.081Z,4.20
2018-11-07T18:30:20.363Z,3.47
2018-11-07T18:32:49.766Z,5.23
2018-11-07T18:35:20.154Z,3.97
2018-11-07T18:37:49.441Z,4.00
2018-11-07T18:40:20.140Z,4.80
2018-11-07T18:42:49.538Z,5.73
2018-11-07T18:45:18.901Z,3.97
2018-11-07T18:47:48.268Z,4.87
2018-11-07T18:50:19.011Z,4.37
2018-11-07T18:52:48.209Z,5.00
2018-11-07T18:55:18.056Z,4.63
2018-11-07T18:57:47.710Z,4.30
2018-11-07T19:00:18.244Z,4.23
2018-11-07T19:02:48.199Z,3.70
2018-11-07T19:05:17.523Z,3.10
2018-11-07T19:07:46.850Z,2.60
2018-11-07T19:10:19.579Z,2.73
2018-11-07T19:12:49.519Z,3.43
2018-11-07T19:15:19.368Z,3.63
2018-11-07T19:17:49.781Z,3.73
2018-11-07T19:20:19.400Z,3.50
2018-11-07T19:22:48.641Z,3.60
2018-11-07T19:25:19.302Z,2.80
2018-11-07T19:27:48.545Z,4.33
2018-11-07T19:30:20.070Z,2.37
2018-11-07T19:32:50.272Z,3.53
2018-11-07T19:35:20.093Z,2.10
2018-11-07T19:37:50.025Z,4.83
2018-11-07T19:40:21.483Z,3.10
2018-11-07T19:42:50.699Z,2.70
2018-11-07T19:45:20.745Z,4.33
2018-11-07T19:47:50.369Z,2.60
2018-11-07T19:50:20.492Z,4.77
2018-11-07T19:52:50.453Z,3.77
2018-11-07T19:55:21.086Z,3.53
2018-11-07T19:57:54.069Z,2.87
2018-11-07T20:00:23.822Z,3.20
2018-11-07T20:02:53.091Z,4.53
2018-11-07T20:05:22.354Z,2.73
2018-11-07T20:07:51.601Z,3.03
2018-11-07T20:10:21.828Z,3.03
2018-11-07T20:12:51.012Z,3.43
2018-11-07T20:15:21.100Z,4.93
2018-11-07T20:17:50.388Z,4.03
2018-11-07T20:20:19.645Z,3.00
2018-11-07T20:22:48.959Z,5.30
2018-11-07T20:25:18.199Z,3.47
2018-11-07T20:27:47.481Z,3.40
2018-11-07T20:30:18.323Z,5.00
2018-11-07T20:32:47.650Z,4.03
2018-11-07T20:35:18.206Z,4.23
2018-11-07T20:37:47.433Z,5.20
2018-11-07T20:40:18.000Z,4.40
2018-11-07T20:42:47.409Z,3.70
2018-11-07T20:45:17.085Z,3.90
2018-11-07T20:47:46.395Z,3.90
2018-11-07T20:50:17.016Z,4.93
2018-11-07T20:52:47.525Z,4.10
2018-11-07T20:55:17.059Z,3.80
2018-11-07T20:57:46.321Z,3.93
2018-11-07T21:00:19.133Z,5.13
2018-11-07T21:02:48.772Z,5.40
2018-11-07T21:05:18.085Z,5.57
2018-11-07T21:07:47.365Z,5.50
2018-11-07T21:10:17.975Z,5.47
2018-11-07T21:12:47.795Z,4.60
2018-11-07T21:15:18.346Z,4.93
2018-11-07T21:17:47.926Z,5.03
2018-11-07T21:20:17.419Z,4.80
2018-11-07T21:22:46.691Z,4.87
2018-11-07T21:25:16.030Z,4.43
2018-11-07T21:27:45.303Z,6.00
2018-11-07T21:30:15.216Z,5.23
2018-11-07T21:32:44.876Z,5.33
2018-11-07T21:35:14.275Z,7.07
2018-11-07T21:37:43.583Z,5.00
2018-11-07T21:40:14.838Z,6.97
2018-11-07T21:42:44.761Z,7.40
2018-11-07T21:45:14.748Z,5.70
2018-11-07T21:47:44.468Z,6.40
2018-11-07T21:50:15.336Z,5.77
2018-11-07T21:52:44.624Z,5.00
2018-11-07T21:55:13.922Z,5.20
2018-11-07T21:57:43.251Z,5.13
2018-11-07T22:00:15.767Z,5.23
2018-11-07T22:02:45.241Z,5.87
2018-11-07T22:05:15.274Z,6.80
2018-11-07T22:07:44.565Z,6.90
2018-11-07T22:10:15.109Z,5.07
2018-11-07T22:12:44.422Z,5.87
2018-11-07T22:15:13.799Z,5.40
2018-11-07T22:17:43.054Z,5.33
2018-11-07T22:20:16.860Z,6.67
2018-11-07T22:22:46.325Z,7.00
2018-11-07T22:25:15.676Z,6.23
2018-11-07T22:27:44.978Z,5.30
2018-11-07T22:30:15.657Z,5.40
2018-11-07T22:32:44.953Z,4.93
2018-11-07T22:35:15.605Z,5.23
2018-11-07T22:37:45.532Z,5.20
2018-11-07T22:40:16.380Z,6.20
2018-11-07T22:42:45.719Z,6.43
2018-11-07T22:45:15.350Z,5.33
2018-11-07T22:47:44.647Z,5.20
2018-11-07T22:50:14.995Z,4.77
2018-11-07T22:52:45.137Z,4.40
2018-11-07T22:55:14.403Z,5.93
2018-11-07T22:57:43.741Z,4.93
2018-11-07T23:00:21.441Z,6.60
2018-11-07T23:02:52.808Z,5.73
2018-11-07T23:05:22.043Z,4.53
2018-11-07T23:07:52.524Z,4.20
2018-11-07T23:10:21.944Z,7.77
2018-11-07T23:12:51.392Z,5.97
2018-11-07T23:15:25.950Z,5.03
2018-11-07T23:17:55.201Z,4.83
2018-11-07T23:20:24.464Z,5.80
2018-11-07T23:22:53.882Z,4.93
2018-11-07T23:25:23.124Z,5.47
2018-11-07T23:27:52.357Z,5.07
2018-11-07T23:30:21.657Z,5.00
2018-11-07T23:32:50.923Z,5.10
2018-11-07T23:35:20.206Z,5.53
2018-11-07T23:37:49.457Z,7.73
2018-11-07T23:40:18.725Z,7.13
2018-11-07T23:42:47.983Z,6.73
2018-11-07T23:45:17.408Z,5.90
2018-11-07T23:47:46.712Z,6.73
2018-11-07T23:50:16.132Z,6.53
2018-11-07T23:52:49.530Z,4.93
2018-11-07T23:55:20.151Z,5.20
2018-11-07T23:57:50.213Z,6.47
